Cary, Kentucky
Current Conditions -  °F | °C
As of 5:55 PM on Thursday 23 Oct 2014 (Local Time) from K1A6 Reporting Station
Clear Clear  
Wind Chill: 60°   Ceiling: Unl
Heat Index: 60°   Visibility: 10mi
Dew Point: 42°   Wind: 3mph
Humidity: 50%   Direction: 330°NNW
Pressure: 30.11"   Gusts: NA
Location:  36.7417°N, 83.6911°W
Report Text: K1A6 232155Z AUTO 33003KT 10SM CLR 16/06 A3011 RMK AO2 T01580055
Loading
Personal Weather Stations






























Interactive Weather Map
Tropical Storm Tracking
New forecast layout! Learn more

10-Day Weather Forecast

Advertisements
Track Severe Weather on mobile